Time;durP1;ratioP1;P1;durP2;ratioP2;P2;SDS_P1;SDS_P2;PMS_P1;PMS_P2;Temp;Humidity;BMP_temperature;BMP_pressure;BME280_temperature;BME280_humidity;BME280_pressure;Samples;Min_cycle;Max_cycle;Signal;HPM_P1;HPM_P2
2023/08/15 00:01:58;;;;;;;1.50;1.00;;;13.80;99.90;;;;;;5082993;28;20240;-70
2023/08/15 00:04:31;;;;;;;2.25;1.10;;;13.90;99.90;;;;;;5081375;28;20211;-70
2023/08/15 00:07:03;;;;;;;0.90;0.80;;;14.00;99.90;;;;;;5078834;28;20200;-70
2023/08/15 00:09:34;;;;;;;0.98;0.73;;;14.20;99.90;;;;;;5076186;28;20553;-69
2023/08/15 00:12:07;;;;;;;0.90;0.70;;;14.30;99.90;;;;;;5074913;28;20232;-70
2023/08/15 00:14:37;;;;;;;0.60;0.60;;;14.50;99.90;;;;;;5074054;28;20197;-70
2023/08/15 00:17:08;;;;;;;0.45;0.43;;;14.60;99.90;;;;;;5073775;28;20189;-72
2023/08/15 00:19:39;;;;;;;14.68;10.68;;;14.60;99.90;;;;;;5073952;28;20232;-72
2023/08/15 00:22:09;;;;;;;6.63;4.70;;;14.70;99.90;;;;;;5085382;28;20195;-71
2023/08/15 00:24:40;;;;;;;5.03;4.22;;;14.80;99.90;;;;;;5093826;28;20184;-71
2023/08/15 00:27:13;;;;;;;1.77;1.08;;;14.90;99.90;;;;;;5089748;28;20197;-70
2023/08/15 00:29:44;;;;;;;0.88;0.70;;;14.90;99.90;;;;;;5090195;28;20188;-71
2023/08/15 00:32:14;;;;;;;1.77;1.23;;;15.00;99.90;;;;;;5075617;28;20909;-70
2023/08/15 00:34:45;;;;;;;2.72;1.40;;;15.10;99.90;;;;;;5093848;28;20184;-73
2023/08/15 00:37:16;;;;;;;2.25;0.73;;;15.20;99.90;;;;;;5093229;28;20670;-70
2023/08/15 00:39:46;;;;;;;0.75;0.47;;;15.30;99.90;;;;;;5093643;28;20532;-71
2023/08/15 00:42:20;;;;;;;1.27;1.10;;;15.40;99.90;;;;;;5091361;28;20194;-70
2023/08/15 00:44:50;;;;;;;1.05;0.52;;;15.50;99.90;;;;;;5087647;28;20697;-70
2023/08/15 00:47:23;;;;;;;1.85;0.60;;;15.50;99.90;;;;;;5093444;28;20192;-71
2023/08/15 00:49:54;;;;;;;0.30;0.30;;;15.60;99.90;;;;;;5093528;28;20192;-70
2023/08/15 00:52:25;;;;;;;1.45;0.50;;;15.70;99.90;;;;;;5090225;28;20200;-71
2023/08/15 00:54:56;;;;;;;0.38;0.35;;;15.90;99.90;;;;;;5072572;28;20193;-72
2023/08/15 00:57:29;;;;;;;1.55;0.45;;;16.10;99.90;;;;;;5072936;28;20190;-72
2023/08/15 01:00:00;;;;;;;1.30;0.40;;;16.20;99.90;;;;;;5089173;28;20188;-72
2023/08/15 01:02:31;;;;;;;2.42;1.20;;;16.20;99.90;;;;;;5092167;28;20182;-70
2023/08/15 01:05:02;;;;;;;2.63;0.98;;;16.10;99.90;;;;;;5092918;28;20193;-71
2023/08/15 01:07:33;;;;;;;2.15;0.50;;;16.10;99.90;;;;;;5093022;28;20591;-70
2023/08/15 01:10:04;;;;;;;0.57;0.30;;;15.90;99.90;;;;;;5093153;28;20236;-70
2023/08/15 01:12:44;;;;;;;1.38;0.68;;;15.80;99.90;;;;;;5090600;28;20203;-71
2023/08/15 01:15:22;;;;;;;3.58;1.55;;;15.80;99.90;;;;;;5087890;28;20184;-71
2023/08/15 01:18:04;;;;;;;2.33;0.70;;;16.00;99.90;;;;;;5092903;28;20188;-71
2023/08/15 01:20:38;;;;;;;2.95;0.70;;;16.00;99.90;;;;;;5092936;28;20629;-70
2023/08/15 01:23:10;;;;;;;1.88;0.80;;;15.90;99.90;;;;;;5081740;28;20197;-71
2023/08/15 01:25:45;;;;;;;1.58;0.75;;;15.80;99.90;;;;;;5073024;28;20633;-71
2023/08/15 01:28:17;;;;;;;0.77;0.70;;;15.80;99.90;;;;;;5073116;28;20192;-70
2023/08/15 01:30:51;;;;;;;1.95;0.68;;;15.70;99.90;;;;;;5073880;28;20300;-73
2023/08/15 01:33:28;;;;;;;2.05;0.60;;;15.70;99.90;;;;;;5081674;28;20555;-72
2023/08/15 01:36:04;;;;;;;1.88;0.50;;;15.60;99.90;;;;;;5079750;28;20690;-72
2023/08/15 01:38:42;;;;;;;1.23;0.50;;;15.50;99.90;;;;;;5081881;28;20250;-71
2023/08/15 01:41:19;;;;;;;1.75;0.88;;;15.40;99.90;;;;;;5081199;28;20231;-71
2023/08/15 01:43:52;;;;;;;2.30;0.57;;;15.40;99.90;;;;;;5073858;28;20203;-70
2023/08/15 01:46:23;;;;;;;2.40;0.80;;;15.40;99.90;;;;;;5086520;28;20295;-70
2023/08/15 01:48:53;;;;;;;1.88;0.57;;;15.40;99.90;;;;;;5092487;28;20184;-70
2023/08/15 01:51:24;;;;;;;1.30;0.45;;;15.50;99.90;;;;;;5089193;28;20188;-71
2023/08/15 01:53:55;;;;;;;1.65;0.63;;;15.40;99.90;;;;;;5085239;28;20189;-73
2023/08/15 01:56:28;;;;;;;1.83;0.52;;;15.40;99.90;;;;;;5083887;28;20583;-70
2023/08/15 01:58:58;;;;;;;4.25;0.50;;;15.60;99.90;;;;;;5079131;28;20609;-71
2023/08/15 02:01:29;;;;;;;4.53;0.55;;;16.00;99.90;;;;;;5074995;28;20193;-73
2023/08/15 02:04:00;;;;;;;2.05;0.52;;;16.30;99.90;;;;;;5080133;28;20207;-71
2023/08/15 02:06:30;;;;;;;3.17;0.50;;;16.40;99.90;;;;;;5084037;28;20217;-70
2023/08/15 02:09:01;;;;;;;0.85;0.30;;;16.20;99.90;;;;;;5093027;28;20210;-71
2023/08/15 02:11:35;;;;;;;1.75;0.40;;;15.90;99.90;;;;;;5080762;28;20234;-71
2023/08/15 02:14:05;;;;;;;1.17;0.35;;;15.80;99.90;;;;;;5074606;28;20672;-71
2023/08/15 02:16:36;;;;;;;0.55;0.20;;;16.00;99.90;;;;;;5084854;28;20195;-72
2023/08/15 02:19:08;;;;;;;1.45;0.35;;;16.30;99.90;;;;;;5081207;28;20223;-72
2023/08/15 02:21:38;;;;;;;0.95;0.22;;;16.50;99.90;;;;;;5085330;28;20203;-70
2023/08/15 02:24:10;;;;;;;1.80;0.40;;;16.70;99.90;;;;;;5091710;28;20207;-74
2023/08/15 02:26:42;;;;;;;0.50;0.30;;;16.90;99.90;;;;;;5094789;28;21362;-73
2023/08/15 02:29:14;;;;;;;1.05;0.30;;;17.00;99.90;;;;;;5083995;28;20196;-71
2023/08/15 02:31:48;;;;;;;1.85;0.30;;;17.20;99.90;;;;;;5091055;28;20193;-71
2023/08/15 02:34:20;;;;;;;0.32;0.30;;;17.30;99.90;;;;;;5075735;28;20204;-72
2023/08/15 02:36:51;;;;;;;0.95;0.20;;;17.30;99.90;;;;;;5075705;28;20242;-73
2023/08/15 02:39:22;;;;;;;1.85;0.30;;;17.10;99.90;;;;;;5081089;28;20193;-72
2023/08/15 02:41:54;;;;;;;1.45;0.40;;;16.80;99.90;;;;;;5092711;28;20523;-72
2023/08/15 02:44:25;;;;;;;1.17;0.38;;;16.60;99.90;;;;;;5077093;28;20576;-71
2023/08/15 02:46:56;;;;;;;2.15;0.40;;;16.40;99.90;;;;;;5074556;28;20227;-71
2023/08/15 02:49:27;;;;;;;1.77;0.40;;;16.40;99.90;;;;;;5075472;28;20189;-71
2023/08/15 02:51:57;;;;;;;3.83;0.50;;;16.40;99.90;;;;;;5075532;28;20199;-70
2023/08/15 02:54:28;;;;;;;1.13;0.40;;;16.50;99.90;;;;;;5074578;28;20553;-71
2023/08/15 02:57:01;;;;;;;1.35;0.40;;;16.60;99.90;;;;;;5075691;28;20189;-70
2023/08/15 02:59:31;;;;;;;0.82;0.50;;;16.80;99.90;;;;;;5075578;28;20200;-71
2023/08/15 03:02:02;;;;;;;0.80;0.50;;;16.90;99.90;;;;;;5075343;28;20192;-71
2023/08/15 03:04:33;;;;;;;0.88;0.40;;;16.80;99.90;;;;;;5075415;28;20189;-70
2023/08/15 03:07:04;;;;;;;2.22;0.40;;;16.80;99.90;;;;;;5075337;28;20217;-71
2023/08/15 03:09:34;;;;;;;0.73;0.30;;;16.80;99.90;;;;;;5075352;28;20189;-70
2023/08/15 03:12:08;;;;;;;4.05;0.50;;;16.80;99.90;;;;;;5075084;28;20700;-70
2023/08/15 03:14:39;;;;;;;3.55;1.23;;;16.60;99.90;;;;;;5075361;28;20189;-71
2023/08/15 03:17:09;;;;;;;2.08;0.50;;;16.50;99.90;;;;;;5074224;28;20200;-71
2023/08/15 03:19:40;;;;;;;0.70;0.32;;;16.40;99.90;;;;;;5075537;28;20224;-71
2023/08/15 03:22:11;;;;;;;1.25;0.50;;;16.50;99.90;;;;;;5075043;28;20203;-72
2023/08/15 03:24:42;;;;;;;3.17;0.52;;;16.60;99.90;;;;;;5074929;28;20189;-70
2023/08/15 03:27:14;;;;;;;0.73;0.40;;;16.80;99.90;;;;;;5074996;28;20213;-71
2023/08/15 03:29:45;;;;;;;2.50;0.60;;;16.80;99.90;;;;;;5075500;28;20227;-70
2023/08/15 03:32:16;;;;;;;0.98;0.40;;;16.90;99.90;;;;;;5074726;28;20292;-71
2023/08/15 03:34:46;;;;;;;2.90;0.88;;;16.80;99.90;;;;;;5085490;28;20200;-73
2023/08/15 03:37:17;;;;;;;0.77;0.50;;;16.80;99.90;;;;;;5095155;28;20189;-70
2023/08/15 03:39:48;;;;;;;1.33;0.50;;;16.90;99.90;;;;;;5094826;28;20192;-69
2023/08/15 03:42:20;;;;;;;2.03;0.70;;;16.90;99.90;;;;;;5094773;28;20196;-70
2023/08/15 03:44:51;;;;;;;1.05;0.50;;;16.70;99.90;;;;;;5094981;28;20196;-73
2023/08/15 03:47:22;;;;;;;2.80;0.40;;;16.50;99.90;;;;;;5094511;28;20223;-70
2023/08/15 03:49:52;;;;;;;2.25;0.50;;;16.30;99.90;;;;;;5094905;28;20194;-75
2023/08/15 03:52:23;;;;;;;3.10;0.50;;;16.20;99.90;;;;;;5094784;28;20188;-70
2023/08/15 03:54:54;;;;;;;2.20;0.40;;;16.10;99.90;;;;;;5094580;28;20215;-71
2023/08/15 03:57:26;;;;;;;1.20;0.50;;;16.00;99.90;;;;;;5094674;28;20192;-73
2023/08/15 03:59:57;;;;;;;2.88;0.60;;;15.90;99.90;;;;;;5094493;28;20192;-73
2023/08/15 04:02:28;;;;;;;0.93;0.47;;;15.80;99.90;;;;;;5094390;28;20192;-73
2023/08/15 04:04:59;;;;;;;1.95;0.60;;;15.90;99.90;;;;;;5093494;28;20196;-73
2023/08/15 04:07:29;;;;;;;1.70;0.40;;;16.10;99.90;;;;;;5094445;28;20291;-72
2023/08/15 04:10:00;;;;;;;2.92;0.50;;;16.30;99.90;;;;;;5094124;28;20211;-71
2023/08/15 04:12:33;;;;;;;1.45;0.57;;;16.40;99.90;;;;;;5094367;28;20195;-72
2023/08/15 04:15:03;;;;;;;2.22;0.70;;;16.50;99.90;;;;;;5094236;28;20192;-71
2023/08/15 04:17:34;;;;;;;2.92;0.70;;;16.50;99.90;;;;;;5094269;28;20228;-73
2023/08/15 04:20:05;;;;;;;2.80;0.70;;;16.70;99.90;;;;;;5094163;28;20184;-74
2023/08/15 04:22:37;;;;;;;2.33;0.57;;;16.70;99.90;;;;;;5094262;28;20206;-73
2023/08/15 04:25:09;;;;;;;4.45;0.68;;;16.60;99.90;;;;;;5094201;28;20199;-74
2023/08/15 04:27:42;;;;;;;1.52;0.57;;;16.50;99.90;;;;;;5094201;28;20215;-72
2023/08/15 04:30:13;;;;;;;2.53;0.60;;;16.40;99.90;;;;;;5093300;28;20199;-75
2023/08/15 04:32:43;;;;;;;1.90;0.60;;;16.20;99.90;;;;;;5094057;28;20196;-73
2023/08/15 04:35:14;;;;;;;6.10;0.88;;;16.20;99.90;;;;;;5094054;28;20189;-70
2023/08/15 04:37:45;;;;;;;3.60;0.70;;;16.30;99.90;;;;;;5093974;28;20184;-74
2023/08/15 04:40:16;;;;;;;2.08;0.55;;;16.20;99.90;;;;;;5093793;28;20266;-71
2023/08/15 04:42:49;;;;;;;2.38;0.60;;;16.10;99.90;;;;;;5093740;28;20192;-73
2023/08/15 04:45:19;;;;;;;1.88;0.60;;;16.00;99.90;;;;;;5093434;28;20192;-73
2023/08/15 04:47:50;;;;;;;2.78;0.60;;;15.90;99.90;;;;;;5093520;28;20212;-72
2023/08/15 04:50:21;;;;;;;2.85;0.50;;;15.80;99.90;;;;;;5093621;28;20633;-71
2023/08/15 04:52:52;;;;;;;4.82;0.75;;;15.80;99.90;;;;;;5093581;28;20584;-71
2023/08/15 04:55:22;;;;;;;4.68;0.65;;;15.80;99.90;;;;;;5093503;28;20193;-72
2023/08/15 04:57:55;;;;;;;2.20;0.50;;;15.90;99.90;;;;;;5093380;28;20188;-71
2023/08/15 05:00:26;;;;;;;3.15;0.57;;;16.00;99.90;;;;;;5093825;28;20184;-70
2023/08/15 05:02:57;;;;;;;2.95;0.60;;;16.10;99.90;;;;;;5093681;28;20193;-73
2023/08/15 05:05:28;;;;;;;2.38;0.70;;;16.20;99.90;;;;;;5093443;28;20192;-73
2023/08/15 05:07:58;;;;;;;2.22;0.60;;;16.30;99.90;;;;;;5093304;28;20220;-72
2023/08/15 05:10:29;;;;;;;2.90;0.52;;;16.40;99.90;;;;;;5093444;28;20228;-71
2023/08/15 05:13:02;;;;;;;4.88;0.60;;;16.40;99.90;;;;;;5092075;28;20181;-73
2023/08/15 05:15:32;;;;;;;3.08;0.70;;;16.40;99.90;;;;;;5080256;28;20204;-71
2023/08/15 05:18:03;;;;;;;4.82;0.63;;;16.40;99.90;;;;;;5073699;28;20728;-73
2023/08/15 05:20:34;;;;;;;4.32;0.70;;;16.30;99.90;;;;;;5079359;28;20185;-72
2023/08/15 05:23:04;;;;;;;3.60;0.68;;;16.20;99.90;;;;;;5073742;28;20533;-71
2023/08/15 05:25:35;;;;;;;3.40;0.70;;;16.10;99.90;;;;;;5079626;28;20649;-72
2023/08/15 05:28:09;;;;;;;2.70;0.70;;;16.00;99.90;;;;;;5080103;28;20212;-72
2023/08/15 05:30:40;;;;;;;0.95;0.52;;;15.90;99.90;;;;;;5081330;28;20192;-71
2023/08/15 05:33:11;;;;;;;2.53;0.60;;;15.80;99.90;;;;;;5079095;28;20196;-73
2023/08/15 05:35:42;;;;;;;2.63;0.60;;;15.80;99.90;;;;;;5087065;28;20560;-71
2023/08/15 05:38:12;;;;;;;1.65;0.40;;;15.70;99.90;;;;;;5080804;28;20200;-73
2023/08/15 05:40:43;;;;;;;1.90;0.47;;;15.60;99.90;;;;;;5088053;28;20196;-71
2023/08/15 05:43:16;;;;;;;1.75;0.50;;;15.50;99.90;;;;;;5088402;28;20207;-71
2023/08/15 05:45:49;;;;;;;4.28;0.77;;;15.50;99.90;;;;;;5077730;28;20200;-72
2023/08/15 05:48:20;;;;;;;1.95;0.60;;;15.50;99.90;;;;;;5093880;28;20222;-74
2023/08/15 05:50:50;;;;;;;1.45;0.50;;;15.50;99.90;;;;;;5089391;28;20203;-74
2023/08/15 05:53:21;;;;;;;2.75;0.95;;;15.60;99.90;;;;;;5090533;28;20223;-72
2023/08/15 05:55:52;;;;;;;3.40;0.60;;;15.60;99.90;;;;;;5076609;28;20200;-74
2023/08/15 05:58:24;;;;;;;2.38;0.63;;;15.60;99.90;;;;;;5083023;28;20562;-74
2023/08/15 06:00:57;;;;;;;1.90;0.43;;;15.60;99.90;;;;;;5084975;28;20197;-74
2023/08/15 06:03:28;;;;;;;1.00;0.35;;;15.50;99.90;;;;;;5081746;28;20195;-72
2023/08/15 06:05:59;;;;;;;3.33;0.60;;;15.40;99.90;;;;;;5086436;28;20203;-72
2023/08/15 06:08:30;;;;;;;3.45;0.68;;;15.30;99.90;;;;;;5079475;28;20220;-72
2023/08/15 06:11:01;;;;;;;2.38;0.43;;;15.10;99.90;;;;;;5078802;28;20274;-71
2023/08/15 06:13:33;;;;;;;1.15;0.60;;;15.10;99.90;;;;;;5075864;28;20201;-74
2023/08/15 06:16:04;;;;;;;1.83;0.35;;;14.90;99.90;;;;;;5080458;28;20212;-72
2023/08/15 06:18:35;;;;;;;5.85;0.65;;;14.90;99.90;;;;;;5082700;28;20215;-73
2023/08/15 06:21:06;;;;;;;2.72;0.50;;;14.90;99.90;;;;;;5087306;28;20558;-72
2023/08/15 06:23:37;;;;;;;3.15;0.52;;;14.90;99.90;;;;;;5096529;28;20586;-71
2023/08/15 06:26:08;;;;;;;2.22;0.60;;;14.80;99.90;;;;;;5078081;28;20204;-70
2023/08/15 06:28:40;;;;;;;2.78;0.60;;;14.70;99.90;;;;;;5076345;28;20217;-72
2023/08/15 06:31:11;;;;;;;2.53;0.82;;;14.80;99.90;;;;;;5090477;28;20270;-71
2023/08/15 06:33:42;;;;;;;3.53;1.13;;;14.80;99.90;;;;;;5076312;28;20201;-70
2023/08/15 06:36:13;;;;;;;3.22;0.60;;;14.70;99.90;;;;;;5075451;28;20192;-72
2023/08/15 06:38:43;;;;;;;3.25;0.63;;;14.70;99.90;;;;;;5075600;28;20242;-71
2023/08/15 06:41:15;;;;;;;1.80;0.30;;;14.70;99.90;;;;;;5075406;28;20671;-71
2023/08/15 06:43:48;;;;;;;1.33;0.40;;;14.60;99.90;;;;;;5082481;28;20192;-71
2023/08/15 06:46:18;;;;;;;0.50;0.40;;;14.50;99.90;;;;;;5091122;28;20593;-70
2023/08/15 06:48:49;;;;;;;1.60;0.50;;;14.50;99.90;;;;;;5081419;28;20684;-70
2023/08/15 06:51:20;;;;;;;1.98;0.65;;;14.50;99.90;;;;;;5074904;28;20189;-70
2023/08/15 06:53:54;;;;;;;2.03;0.50;;;14.40;99.90;;;;;;5075319;28;20193;-74
2023/08/15 06:56:25;;;;;;;2.08;0.40;;;14.40;99.90;;;;;;5076065;28;20195;-71
2023/08/15 06:58:57;;;;;;;2.60;0.47;;;14.40;99.90;;;;;;5074447;28;20193;-70
2023/08/15 07:01:28;;;;;;;2.75;0.60;;;14.30;99.90;;;;;;5082955;28;20199;-70
2023/08/15 07:03:59;;;;;;;4.85;0.40;;;14.30;99.90;;;;;;5078998;28;20283;-71
2023/08/15 07:06:30;;;;;;;1.95;0.32;;;14.20;99.90;;;;;;5080543;28;20196;-71
2023/08/15 07:09:01;;;;;;;2.58;0.50;;;14.20;99.90;;;;;;5075412;28;20216;-70
2023/08/15 07:11:31;;;;;;;1.83;0.50;;;14.20;99.90;;;;;;5077200;28;20270;-70
2023/08/15 07:14:04;;;;;;;2.33;0.43;;;14.10;99.90;;;;;;5082342;28;20197;-70
2023/08/15 07:16:35;;;;;;;2.83;0.70;;;14.10;99.90;;;;;;5076794;28;20223;-70
2023/08/15 07:19:06;;;;;;;1.20;0.40;;;14.00;99.90;;;;;;5085067;28;20211;-70
2023/08/15 07:21:36;;;;;;;1.27;0.40;;;14.00;99.90;;;;;;5077926;28;20246;-71
2023/08/15 07:24:08;;;;;;;1.42;0.40;;;13.90;99.90;;;;;;5077820;28;20201;-71
2023/08/15 07:26:38;;;;;;;1.50;0.63;;;13.90;99.90;;;;;;5089761;28;20200;-71
2023/08/15 07:29:11;;;;;;;3.90;0.70;;;13.90;99.90;;;;;;5082218;28;20647;-72
2023/08/15 07:31:42;;;;;;;3.53;0.60;;;13.80;99.90;;;;;;5085303;28;20554;-71
2023/08/15 07:34:12;;;;;;;2.33;0.60;;;13.80;99.90;;;;;;5080478;28;20197;-73
2023/08/15 07:36:43;;;;;;;5.03;0.80;;;13.80;99.90;;;;;;5079071;28;20585;-71
2023/08/15 07:39:14;;;;;;;2.53;0.60;;;13.80;99.90;;;;;;5085932;28;20204;-71
2023/08/15 07:41:45;;;;;;;1.60;0.80;;;13.70;99.90;;;;;;5081110;28;20225;-71
2023/08/15 07:44:18;;;;;;;2.78;0.80;;;13.70;99.90;;;;;;5083477;28;20537;-71
2023/08/15 07:46:48;;;;;;;4.20;1.02;;;13.70;99.90;;;;;;5074894;28;20664;-71
2023/08/15 07:49:19;;;;;;;2.70;0.70;;;13.70;99.90;;;;;;5075045;28;20365;-73
2023/08/15 07:51:50;;;;;;;2.22;0.88;;;13.60;99.90;;;;;;5079065;28;20289;-71
2023/08/15 07:54:21;;;;;;;2.97;0.70;;;13.60;99.90;;;;;;5077838;28;20201;-70
2023/08/15 07:56:51;;;;;;;3.85;0.55;;;13.60;99.90;;;;;;5090806;28;20204;-71
2023/08/15 07:59:24;;;;;;;2.45;0.77;;;13.60;99.90;;;;;;5075705;28;20208;-71
2023/08/15 08:01:56;;;;;;;5.10;0.90;;;13.60;99.90;;;;;;5076000;28;20261;-70
2023/08/15 08:04:27;;;;;;;4.72;1.08;;;13.50;99.90;;;;;;5080477;28;20321;-70
2023/08/15 08:06:57;;;;;;;3.53;1.60;;;13.50;99.90;;;;;;5076313;28;20197;-70
2023/08/15 08:09:28;;;;;;;3.72;1.20;;;13.50;99.90;;;;;;5076162;28;20211;-70
2023/08/15 08:11:59;;;;;;;5.10;1.20;;;13.50;99.90;;;;;;5084258;28;20231;-71
2023/08/15 08:14:31;;;;;;;2.75;1.00;;;13.50;99.90;;;;;;5085839;28;20583;-71
2023/08/15 08:17:02;;;;;;;2.65;0.77;;;13.50;99.90;;;;;;5080750;28;20684;-70
2023/08/15 08:19:33;;;;;;;5.30;1.15;;;13.50;99.90;;;;;;5078534;28;20204;-70
2023/08/15 08:22:03;;;;;;;3.03;1.00;;;13.50;99.90;;;;;;5074100;28;20197;-70
2023/08/15 08:24:34;;;;;;;3.72;0.90;;;13.50;99.90;;;;;;5073711;28;20560;-69
2023/08/15 08:27:05;;;;;;;6.50;0.82;;;13.50;99.90;;;;;;5077660;28;20201;-72
2023/08/15 08:29:38;;;;;;;1.17;0.60;;;13.50;99.90;;;;;;5079802;28;20213;-70
2023/08/15 08:32:09;;;;;;;1.35;0.60;;;13.50;99.90;;;;;;5073151;28;20201;-70
2023/08/15 08:34:39;;;;;;;2.28;0.70;;;13.50;99.90;;;;;;5079266;28;20284;-70
2023/08/15 08:37:10;;;;;;;1.02;0.73;;;13.50;99.90;;;;;;5079549;28;20541;-70
2023/08/15 08:39:41;;;;;;;2.92;1.20;;;13.50;99.90;;;;;;5084406;28;20211;-70
2023/08/15 08:42:13;;;;;;;2.55;1.00;;;13.50;99.90;;;;;;5074761;28;20574;-70
2023/08/15 08:44:46;;;;;;;2.53;1.00;;;13.50;99.90;;;;;;5076213;28;20192;-73
2023/08/15 08:47:17;;;;;;;2.00;0.90;;;13.40;99.90;;;;;;5087632;28;20660;-69
2023/08/15 08:49:50;;;;;;;1.95;0.70;;;13.40;99.90;;;;;;5073939;28;20212;-70
2023/08/15 08:52:22;;;;;;;1.75;0.80;;;13.40;99.90;;;;;;5084596;28;20200;-71
2023/08/15 08:54:53;;;;;;;3.20;0.85;;;13.40;99.90;;;;;;5073295;28;20193;-70
2023/08/15 08:57:25;;;;;;;1.80;0.80;;;13.40;99.90;;;;;;5072838;28;20192;-70
2023/08/15 09:00:00;;;;;;;1.92;0.90;;;13.30;99.90;;;;;;5073097;28;20225;-70
2023/08/15 09:02:31;;;;;;;1.67;1.00;;;13.30;99.90;;;;;;5073290;28;20192;-69
2023/08/15 09:05:03;;;;;;;2.38;1.15;;;13.30;99.90;;;;;;5078615;28;20193;-70
2023/08/15 09:07:35;;;;;;;2.65;1.05;;;13.30;99.90;;;;;;5073794;28;20280;-70
2023/08/15 09:10:06;;;;;;;1.60;0.95;;;13.30;99.90;;;;;;5073003;28;20288;-70
2023/08/15 09:12:37;;;;;;;2.13;0.88;;;13.30;99.90;;;;;;5085592;28;20197;-70
2023/08/15 09:15:14;;;;;;;3.88;0.90;;;13.20;99.90;;;;;;5071967;28;20628;-70
2023/08/15 09:17:46;;;;;;;2.05;0.90;;;13.20;99.90;;;;;;5086186;28;20202;-70
2023/08/15 09:20:18;;;;;;;2.35;0.70;;;13.20;99.90;;;;;;5092423;28;20192;-70
2023/08/15 09:22:50;;;;;;;1.42;0.68;;;13.20;99.90;;;;;;5092912;28;20206;-71
2023/08/15 09:25:21;;;;;;;2.22;0.68;;;13.10;99.90;;;;;;5086661;28;20196;-71
2023/08/15 09:27:53;;;;;;;3.05;0.73;;;13.10;99.90;;;;;;5072962;28;20203;-70
2023/08/15 09:30:26;;;;;;;1.67;0.73;;;13.10;99.90;;;;;;5072997;28;20197;-70
2023/08/15 09:32:58;;;;;;;1.30;0.60;;;13.10;99.90;;;;;;5072386;28;20203;-71
2023/08/15 09:35:28;;;;;;;1.10;0.70;;;13.10;99.90;;;;;;5072816;28;20204;-70
2023/08/15 09:38:05;;;;;;;0.57;0.47;;;13.00;99.90;;;;;;5075315;28;20216;-70
2023/08/15 09:40:36;;;;;;;1.27;0.70;;;13.00;99.90;;;;;;5087508;28;20214;-71
2023/08/15 09:43:08;;;;;;;2.05;0.52;;;13.00;99.90;;;;;;5074261;28;20193;-70
2023/08/15 09:45:41;;;;;;;1.77;0.57;;;13.00;99.90;;;;;;5072467;28;20208;-70
2023/08/15 09:48:12;;;;;;;0.70;0.60;;;12.90;99.90;;;;;;5072468;28;20213;-71
2023/08/15 09:50:45;;;;;;;1.27;0.70;;;12.90;99.90;;;;;;5083006;28;20520;-70
2023/08/15 09:53:16;;;;;;;1.20;0.70;;;12.90;99.90;;;;;;5092670;28;20204;-70
2023/08/15 09:55:46;;;;;;;1.92;0.80;;;12.90;99.90;;;;;;5076110;28;20200;-70
2023/08/15 09:58:19;;;;;;;1.42;0.80;;;12.90;99.90;;;;;;5072669;28;20205;-70
2023/08/15 10:00:53;;;;;;;1.58;0.80;;;12.80;99.90;;;;;;5072666;28;20196;-71
2023/08/15 10:03:29;;;;;;;0.95;0.77;;;12.80;99.90;;;;;;5077278;28;20191;-70
2023/08/15 10:06:01;;;;;;;2.47;0.75;;;12.80;99.90;;;;;;5073107;28;20612;-69
2023/08/15 10:08:33;;;;;;;1.42;0.80;;;12.80;99.90;;;;;;5075488;28;20247;-71
2023/08/15 10:11:07;;;;;;;2.25;0.82;;;12.80;99.90;;;;;;5075142;28;20224;-71
2023/08/15 10:13:41;;;;;;;1.20;0.60;;;12.80;99.90;;;;;;5078502;28;20565;-70
2023/08/15 10:16:16;;;;;;;2.20;0.65;;;12.80;99.90;;;;;;5072906;28;20735;-70
2023/08/15 10:18:56;;;;;;;2.03;0.60;;;12.80;99.90;;;;;;5080077;28;20690;-71
2023/08/15 10:21:27;;;;;;;0.70;0.60;;;12.80;99.90;;;;;;5072699;28;20212;-70
2023/08/15 10:24:04;;;;;;;1.42;0.70;;;12.70;99.90;;;;;;5079151;28;20201;-70
2023/08/15 10:26:35;;;;;;;1.35;0.70;;;12.70;99.90;;;;;;5078735;28;20215;-70
2023/08/15 10:29:06;;;;;;;2.88;0.85;;;12.70;99.90;;;;;;5077850;28;20225;-70
2023/08/15 10:31:43;;;;;;;1.60;0.80;;;12.70;99.90;;;;;;5082270;28;20200;-71
2023/08/15 10:34:14;;;;;;;6.50;1.00;;;12.70;99.90;;;;;;5075856;28;20208;-70
2023/08/15 10:36:47;;;;;;;4.28;1.25;;;12.70;99.90;;;;;;5077863;28;20214;-71
2023/08/15 10:39:19;;;;;;;3.15;1.25;;;12.70;99.90;;;;;;5077209;28;20193;-70
2023/08/15 10:41:49;;;;;;;2.58;1.23;;;12.60;99.90;;;;;;5086585;28;20556;-70
2023/08/15 10:44:21;;;;;;;1.90;1.20;;;12.60;99.90;;;;;;5081051;28;20211;-71
2023/08/15 10:46:53;;;;;;;3.47;1.38;;;12.50;99.90;;;;;;5074371;28;20200;-70
2023/08/15 10:49:27;;;;;;;1.55;0.90;;;12.50;99.90;;;;;;5086253;28;20221;-70
2023/08/15 10:52:02;;;;;;;3.45;1.00;;;12.60;99.90;;;;;;5085114;28;20197;-71
2023/08/15 10:54:33;;;;;;;3.45;1.10;;;12.50;99.90;;;;;;5074106;28;20207;-70
2023/08/15 10:57:03;;;;;;;4.20;1.00;;;12.50;99.90;;;;;;5076032;28;20196;-71
2023/08/15 10:59:35;;;;;;;2.03;1.10;;;12.60;99.90;;;;;;5075818;28;20664;-71
2023/08/15 11:02:07;;;;;;;1.10;0.80;;;12.50;99.90;;;;;;5075457;28;20205;-70
2023/08/15 11:04:38;;;;;;;1.20;0.80;;;12.50;99.90;;;;;;5079547;28;20207;-70
2023/08/15 11:07:09;;;;;;;2.20;0.80;;;12.50;99.90;;;;;;5093819;28;20194;-70
2023/08/15 11:09:40;;;;;;;2.20;0.90;;;12.50;99.90;;;;;;5090287;28;20231;-71
2023/08/15 11:12:11;;;;;;;2.72;1.90;;;12.50;99.90;;;;;;5091921;28;20200;-70
2023/08/15 11:14:43;;;;;;;3.72;1.77;;;12.50;99.90;;;;;;5077316;28;20192;-70
2023/08/15 11:17:16;;;;;;;2.13;1.63;;;12.40;99.90;;;;;;5082094;28;20636;-70
2023/08/15 11:19:46;;;;;;;3.42;1.50;;;12.40;99.90;;;;;;5093193;28;20200;-70
2023/08/15 11:22:18;;;;;;;2.55;1.50;;;12.40;99.90;;;;;;5095299;28;20185;-70
2023/08/15 11:24:53;;;;;;;3.88;2.05;;;12.30;99.90;;;;;;5080979;28;20197;-70
2023/08/15 11:27:24;;;;;;;4.00;2.20;;;12.30;99.90;;;;;;5075322;28;20195;-70
2023/08/15 11:30:00;;;;;;;3.72;2.20;;;12.30;99.90;;;;;;5074734;28;20680;-70
2023/08/15 11:32:32;;;;;;;4.10;2.38;;;12.30;99.90;;;;;;5075267;28;20195;-70
2023/08/15 11:35:04;;;;;;;4.32;2.55;;;12.20;99.90;;;;;;5074910;28;20193;-70
2023/08/15 11:37:34;;;;;;;5.30;2.40;;;12.20;99.90;;;;;;5075021;28;20564;-70
2023/08/15 11:40:06;;;;;;;3.35;2.22;;;12.20;99.90;;;;;;5074926;28;20188;-70
2023/08/15 11:42:38;;;;;;;6.35;2.20;;;12.20;99.90;;;;;;5074530;28;20204;-70
2023/08/15 11:45:19;;;;;;;5.05;2.35;;;12.20;99.90;;;;;;5074075;28;20283;-70
2023/08/15 11:48:00;;;;;;;7.28;2.78;;;12.20;99.90;;;;;;5083144;28;20199;-70
2023/08/15 11:50:33;;;;;;;7.38;2.70;;;12.20;99.90;;;;;;5091828;28;20217;-70
2023/08/15 11:53:09;;;;;;;4.95;2.25;;;12.30;99.90;;;;;;5093382;28;20226;-71
2023/08/15 11:55:40;;;;;;;5.45;2.10;;;12.20;99.90;;;;;;5087235;28;20188;-70
2023/08/15 11:58:26;;;;;;;6.07;2.17;;;12.20;99.90;;;;;;5075545;28;20652;-70
2023/08/15 12:00:58;;;;;;;4.65;1.90;;;12.20;99.90;;;;;;5073793;28;20207;-70
2023/08/15 12:03:32;;;;;;;4.40;1.77;;;12.20;99.90;;;;;;5074766;28;20194;-70
2023/08/15 12:06:04;;;;;;;3.45;1.83;;;12.20;99.90;;;;;;5073174;28;20255;-70
2023/08/15 12:08:35;;;;;;;3.88;1.83;;;12.20;99.90;;;;;;5075013;28;20199;-70
2023/08/15 12:11:09;;;;;;;3.65;1.85;;;12.20;99.90;;;;;;5083362;28;20623;-70
2023/08/15 12:13:41;;;;;;;3.92;1.90;;;12.20;99.90;;;;;;5088994;28;20195;-70
2023/08/15 12:16:12;;;;;;;4.43;1.70;;;12.20;99.90;;;;;;5074159;28;20228;-69
2023/08/15 12:18:45;;;;;;;3.38;1.70;;;12.20;99.90;;;;;;5089020;28;20668;-69
2023/08/15 12:21:15;;;;;;;4.90;1.60;;;12.20;99.90;;;;;;5073458;28;20199;-70
2023/08/15 12:23:46;;;;;;;3.05;1.40;;;12.20;99.90;;;;;;5078732;28;20199;-70
2023/08/15 12:26:17;;;;;;;3.13;1.48;;;12.10;99.90;;;;;;5085336;28;20192;-70
2023/08/15 12:28:47;;;;;;;2.03;1.27;;;12.10;99.90;;;;;;5081487;28;20556;-70
2023/08/15 12:31:19;;;;;;;2.85;1.42;;;12.10;99.90;;;;;;5088569;28;20202;-69
2023/08/15 12:33:51;;;;;;;1.88;1.17;;;12.10;99.90;;;;;;5085111;28;20195;-69
2023/08/15 12:36:22;;;;;;;1.73;1.05;;;12.10;99.90;;;;;;5074031;28;20198;-69
2023/08/15 12:38:53;;;;;;;4.40;1.10;;;12.00;99.90;;;;;;5092659;28;20188;-69
2023/08/15 12:41:23;;;;;;;4.20;1.30;;;12.00;99.90;;;;;;5093445;28;20195;-69
2023/08/15 12:43:54;;;;;;;3.03;1.20;;;12.00;99.90;;;;;;5093687;28;20192;-70
2023/08/15 12:46:25;;;;;;;1.48;1.10;;;12.00;99.90;;;;;;5092101;28;20632;-70
2023/08/15 12:49:01;;;;;;;2.15;1.40;;;12.00;99.90;;;;;;5092388;28;20215;-70
2023/08/15 12:51:33;;;;;;;2.42;1.38;;;11.90;99.90;;;;;;5093394;28;20235;-69
2023/08/15 12:54:04;;;;;;;2.95;1.25;;;11.90;99.90;;;;;;5078715;28;20268;-70
2023/08/15 12:56:34;;;;;;;2.55;1.35;;;11.80;99.90;;;;;;5073668;28;20195;-71
2023/08/15 12:59:05;;;;;;;3.72;1.48;;;11.80;99.90;;;;;;5089154;28;20192;-69
2023/08/15 13:01:36;;;;;;;2.53;1.10;;;11.80;99.90;;;;;;5093441;28;20192;-69
2023/08/15 13:04:12;;;;;;;5.05;1.73;;;11.70;99.90;;;;;;5093656;28;20200;-69
2023/08/15 13:06:43;;;;;;;2.65;1.80;;;11.70;99.90;;;;;;5091437;28;20196;-69
2023/08/15 13:09:13;;;;;;;4.68;2.13;;;11.60;99.90;;;;;;5090832;28;20216;-70
2023/08/15 13:11:44;;;;;;;3.38;2.28;;;11.50;99.90;;;;;;5082210;28;20228;-69